sensor_id;sensor_type;location;lat;lon;timestamp;pressure;altitude;pressure_sealevel;temperature;humidity
73332;BME280;61560;33.718;73.040;2022-12-10T00:01:28;95136.84;;;12.36;70.08
73332;BME280;61560;33.718;73.040;2022-12-10T00:03:56;95142.69;;;12.38;70.00
73332;BME280;61560;33.718;73.040;2022-12-10T00:06:25;95141.53;;;12.39;69.98
73332;BME280;61560;33.718;73.040;2022-12-10T00:08:52;95142.25;;;12.43;69.77
73332;BME280;61560;33.718;73.040;2022-12-10T00:11:21;95136.75;;;12.43;69.69
73332;BME280;61560;33.718;73.040;2022-12-10T00:13:49;95149.25;;;12.48;69.87
73332;BME280;61560;33.718;73.040;2022-12-10T00:16:18;95149.28;;;12.44;69.86
73332;BME280;61560;33.718;73.040;2022-12-10T00:18:46;95150.19;;;12.38;69.60
73332;BME280;61560;33.718;73.040;2022-12-10T00:21:16;95158.03;;;12.35;69.54
73332;BME280;61560;33.718;73.040;2022-12-10T00:23:45;95156.50;;;12.34;69.70
73332;BME280;61560;33.718;73.040;2022-12-10T00:26:20;95162.00;;;12.34;69.24
73332;BME280;61560;33.718;73.040;2022-12-10T00:28:50;95155.34;;;12.32;69.72
73332;BME280;61560;33.718;73.040;2022-12-10T00:31:36;95147.47;;;12.34;69.86
73332;BME280;61560;33.718;73.040;2022-12-10T00:34:06;95144.31;;;12.35;69.97
73332;BME280;61560;33.718;73.040;2022-12-10T00:36:41;95145.94;;;12.33;69.97
73332;BME280;61560;33.718;73.040;2022-12-10T00:39:12;95154.63;;;12.28;70.44
73332;BME280;61560;33.718;73.040;2022-12-10T00:41:39;95153.84;;;12.27;70.33
73332;BME280;61560;33.718;73.040;2022-12-10T00:44:06;95162.44;;;12.29;70.39
73332;BME280;61560;33.718;73.040;2022-12-10T00:46:33;95154.22;;;12.29;70.59
73332;BME280;61560;33.718;73.040;2022-12-10T00:49:01;95156.50;;;12.34;70.09
73332;BME280;61560;33.718;73.040;2022-12-10T00:51:29;95156.06;;;12.36;70.63
73332;BME280;61560;33.718;73.040;2022-12-10T00:53:58;95157.63;;;12.37;70.37
73332;BME280;61560;33.718;73.040;2022-12-10T00:56:29;95150.19;;;12.38;70.30
73332;BME280;61560;33.718;73.040;2022-12-10T00:58:56;95154.91;;;12.37;70.46
73332;BME280;61560;33.718;73.040;2022-12-10T01:01:31;95151.25;;;12.44;70.48
73332;BME280;61560;33.718;73.040;2022-12-10T01:04:01;95150.47;;;12.43;70.38
73332;BME280;61560;33.718;73.040;2022-12-10T01:06:34;95158.31;;;12.45;70.57
73332;BME280;61560;33.718;73.040;2022-12-10T01:09:05;95157.88;;;12.46;70.54
73332;BME280;61560;33.718;73.040;2022-12-10T01:11:35;95165.00;;;12.44;70.60
73332;BME280;61560;33.718;73.040;2022-12-10T01:14:06;95167.38;;;12.42;70.65
73332;BME280;61560;33.718;73.040;2022-12-10T01:16:33;95178.41;;;12.38;70.79
73332;BME280;61560;33.718;73.040;2022-12-10T01:19:00;95179.56;;;12.41;70.98
73332;BME280;61560;33.718;73.040;2022-12-10T01:21:28;95182.31;;;12.41;70.66
73332;BME280;61560;33.718;73.040;2022-12-10T01:23:57;95185.41;;;12.43;70.72
73332;BME280;61560;33.718;73.040;2022-12-10T01:26:30;95186.97;;;12.44;71.19
73332;BME280;61560;33.718;73.040;2022-12-10T01:29:00;95196.69;;;12.48;70.92
73332;BME280;61560;33.718;73.040;2022-12-10T01:31:31;95199.81;;;12.50;71.21
73332;BME280;61560;33.718;73.040;2022-12-10T01:34:00;95215.91;;;12.52;71.21
73332;BME280;61560;33.718;73.040;2022-12-10T01:36:33;95213.53;;;12.50;71.16
73332;BME280;61560;33.718;73.040;2022-12-10T01:39:25;95224.91;;;12.52;71.24
73332;BME280;61560;33.718;73.040;2022-12-10T01:41:55;95219.41;;;12.52;71.49
73332;BME280;61560;33.718;73.040;2022-12-10T01:46:52;95213.50;;;12.54;71.37
73332;BME280;61560;33.718;73.040;2022-12-10T01:49:23;95225.25;;;12.54;71.57
73332;BME280;61560;33.718;73.040;2022-12-10T01:51:53;95230.81;;;12.51;71.79
73332;BME280;61560;33.718;73.040;2022-12-10T01:54:30;95230.75;;;12.54;71.29
73332;BME280;61560;33.718;73.040;2022-12-10T01:57:08;95226.88;;;12.52;71.18
73332;BME280;61560;33.718;73.040;2022-12-10T01:59:39;95228.44;;;12.53;71.44
73332;BME280;61560;33.718;73.040;2022-12-10T02:13:12;95239.78;;;12.55;71.50
73332;BME280;61560;33.718;73.040;2022-12-10T02:15:51;95239.00;;;12.54;71.13
73332;BME280;61560;33.718;73.040;2022-12-10T02:18:26;95237.81;;;12.55;71.36
73332;BME280;61560;33.718;73.040;2022-12-10T02:21:02;95234.75;;;12.50;71.54
73332;BME280;61560;33.718;73.040;2022-12-10T02:23:35;95240.72;;;12.45;71.88
73332;BME280;61560;33.718;73.040;2022-12-10T02:26:14;95257.91;;;12.49;72.02
73332;BME280;61560;33.718;73.040;2022-12-10T02:31:31;95273.59;;;12.52;71.91
73332;BME280;61560;33.718;73.040;2022-12-10T02:34:02;95281.00;;;12.55;71.99
73332;BME280;61560;33.718;73.040;2022-12-10T02:36:35;95289.53;;;12.60;71.82
73332;BME280;61560;33.718;73.040;2022-12-10T02:39:08;95291.13;;;12.61;72.19
73332;BME280;61560;33.718;73.040;2022-12-10T02:41:51;95293.44;;;12.63;71.89
73332;BME280;61560;33.718;73.040;2022-12-10T02:44:20;95299.66;;;12.67;71.54
73332;BME280;61560;33.718;73.040;2022-12-10T02:46:50;95292.63;;;12.66;71.59
73332;BME280;61560;33.718;73.040;2022-12-10T02:49:21;95297.69;;;12.67;71.11
73332;BME280;61560;33.718;73.040;2022-12-10T02:51:49;95297.63;;;12.71;71.06
73332;BME280;61560;33.718;73.040;2022-12-10T02:54:38;95295.25;;;12.73;70.81
73332;BME280;61560;33.718;73.040;2022-12-10T03:00:23;95283.81;;;12.78;70.53
73332;BME280;61560;33.718;73.040;2022-12-10T03:08:47;95271.88;;;12.88;69.88
73332;BME280;61560;33.718;73.040;2022-12-10T03:11:24;95271.44;;;12.89;69.77
73332;BME280;61560;33.718;73.040;2022-12-10T03:14:13;95276.38;;;13.01;68.98
73332;BME280;61560;33.718;73.040;2022-12-10T03:16:51;95275.88;;;13.10;67.94
73332;BME280;61560;33.718;73.040;2022-12-10T03:19:40;95286.63;;;13.24;68.10
73332;BME280;61560;33.718;73.040;2022-12-10T03:22:13;95288.78;;;13.36;68.02
73332;BME280;61560;33.718;73.040;2022-12-10T03:24:42;95279.53;;;13.50;66.85
73332;BME280;61560;33.718;73.040;2022-12-10T03:27:11;95285.19;;;13.62;66.48
73332;BME280;61560;33.718;73.040;2022-12-10T03:29:59;95294.25;;;13.82;65.94
73332;BME280;61560;33.718;73.040;2022-12-10T03:32:28;95293.53;;;14.02;65.59
73332;BME280;61560;33.718;73.040;2022-12-10T03:34:58;95304.25;;;14.16;64.02
73332;BME280;61560;33.718;73.040;2022-12-10T03:37:27;95315.81;;;14.27;63.22
73332;BME280;61560;33.718;73.040;2022-12-10T03:39:57;95313.06;;;14.30;63.01
73332;BME280;61560;33.718;73.040;2022-12-10T03:42:27;95331.00;;;14.38;63.52
73332;BME280;61560;33.718;73.040;2022-12-10T03:44:53;95335.00;;;14.34;63.39
73332;BME280;61560;33.718;73.040;2022-12-10T03:47:22;95346.38;;;14.36;63.79
73332;BME280;61560;33.718;73.040;2022-12-10T03:49:49;95346.13;;;14.30;64.99
73332;BME280;61560;33.718;73.040;2022-12-10T03:52:17;95350.06;;;14.29;64.92
73332;BME280;61560;33.718;73.040;2022-12-10T03:54:44;95369.34;;;14.29;65.15
73332;BME280;61560;33.718;73.040;2022-12-10T03:57:11;95364.22;;;14.28;65.07
73332;BME280;61560;33.718;73.040;2022-12-10T03:59:38;95367.41;;;14.26;65.86
73332;BME280;61560;33.718;73.040;2022-12-10T10:13:45;95163.31;;;17.29;51.81
73332;BME280;61560;33.718;73.040;2022-12-10T10:16:28;95160.72;;;17.35;51.66
73332;BME280;61560;33.718;73.040;2022-12-10T10:19:16;95164.16;;;17.39;51.72
73332;BME280;61560;33.718;73.040;2022-12-10T10:21:50;95162.81;;;17.43;51.96
73332;BME280;61560;33.718;73.040;2022-12-10T10:24:24;95161.59;;;17.44;52.23
73332;BME280;61560;33.718;73.040;2022-12-10T10:26:57;95161.81;;;17.50;52.16
73332;BME280;61560;33.718;73.040;2022-12-10T10:29:25;95152.97;;;17.55;52.17
73332;BME280;61560;33.718;73.040;2022-12-10T10:32:15;95162.56;;;17.63;52.44
73332;BME280;61560;33.718;73.040;2022-12-10T10:34:46;95158.09;;;17.65;52.54
73332;BME280;61560;33.718;73.040;2022-12-10T10:37:23;95166.31;;;17.69;52.21
73332;BME280;61560;33.718;73.040;2022-12-10T10:39:55;95153.66;;;17.68;52.12
73332;BME280;61560;33.718;73.040;2022-12-10T10:42:32;95165.72;;;17.74;52.06
73332;BME280;61560;33.718;73.040;2022-12-10T10:51:20;95160.06;;;17.77;52.76
73332;BME280;61560;33.718;73.040;2022-12-10T10:53:54;95162.16;;;17.73;52.88
73332;BME280;61560;33.718;73.040;2022-12-10T10:56:32;95162.63;;;17.72;53.08
73332;BME280;61560;33.718;73.040;2022-12-10T10:59:17;95163.06;;;17.70;53.20
73332;BME280;61560;33.718;73.040;2022-12-10T11:01:50;95163.06;;;17.70;53.74
73332;BME280;61560;33.718;73.040;2022-12-10T11:07:01;95168.84;;;17.63;54.63
73332;BME280;61560;33.718;73.040;2022-12-10T11:09:33;95170.22;;;17.59;54.93
73332;BME280;61560;33.718;73.040;2022-12-10T11:12:05;95177.09;;;17.54;55.28
73332;BME280;61560;33.718;73.040;2022-12-10T11:14:44;95176.44;;;17.50;55.72
73332;BME280;61560;33.718;73.040;2022-12-10T11:19:52;95172.03;;;17.40;56.46
73332;BME280;61560;33.718;73.040;2022-12-10T11:22:50;95175.56;;;17.41;56.88
73332;BME280;61560;33.718;73.040;2022-12-10T11:25:19;95180.09;;;17.35;57.08
73332;BME280;61560;33.718;73.040;2022-12-10T11:34:09;95178.81;;;17.27;57.76
73332;BME280;61560;33.718;73.040;2022-12-10T11:37:01;95177.38;;;17.22;57.87
73332;BME280;61560;33.718;73.040;2022-12-10T11:57:07;95192.94;;;16.69;60.86
73332;BME280;61560;33.718;73.040;2022-12-10T12:16:20;95188.78;;;16.11;62.14
73332;BME280;61560;33.718;73.040;2022-12-10T12:19:04;95197.59;;;16.06;62.64
73332;BME280;61560;33.718;73.040;2022-12-10T12:21:44;95197.03;;;15.98;62.91
73332;BME280;61560;33.718;73.040;2022-12-10T12:24:42;95198.78;;;15.92;63.28
73332;BME280;61560;33.718;73.040;2022-12-10T12:27:25;95202.06;;;15.87;63.13
73332;BME280;61560;33.718;73.040;2022-12-10T12:30:18;95199.84;;;15.82;63.28
73332;BME280;61560;33.718;73.040;2022-12-10T12:35:46;95206.00;;;15.74;63.53
73332;BME280;61560;33.718;73.040;2022-12-10T12:41:14;95222.84;;;15.63;63.25
73332;BME280;61560;33.718;73.040;2022-12-10T12:43:57;95215.53;;;15.56;63.30
73332;BME280;61560;33.718;73.040;2022-12-10T12:46:43;95212.28;;;15.45;62.95
73332;BME280;61560;33.718;73.040;2022-12-10T12:49:26;95226.00;;;15.49;63.24
73332;BME280;61560;33.718;73.040;2022-12-10T12:54:43;95221.06;;;15.40;63.00
73332;BME280;61560;33.718;73.040;2022-12-10T12:57:36;95217.72;;;15.33;63.18
73332;BME280;61560;33.718;73.040;2022-12-10T13:00:17;95230.28;;;15.34;63.33
73332;BME280;61560;33.718;73.040;2022-12-10T13:02:59;95240.53;;;15.33;63.71
73332;BME280;61560;33.718;73.040;2022-12-10T13:05:38;95239.88;;;15.29;63.25
73332;BME280;61560;33.718;73.040;2022-12-10T13:08:24;95240.50;;;15.21;62.36
73332;BME280;61560;33.718;73.040;2022-12-10T13:11:34;95244.53;;;15.16;62.83
73332;BME280;61560;33.718;73.040;2022-12-10T13:14:14;95237.56;;;15.12;62.97
73332;BME280;61560;33.718;73.040;2022-12-10T13:16:49;95244.72;;;15.09;63.41
73332;BME280;61560;33.718;73.040;2022-12-10T13:19:28;95256.19;;;15.08;63.24
73332;BME280;61560;33.718;73.040;2022-12-10T13:22:41;95252.38;;;15.02;63.42
73332;BME280;61560;33.718;73.040;2022-12-10T13:27:39;95256.00;;;14.99;63.23
73332;BME280;61560;33.718;73.040;2022-12-10T13:35:29;95264.59;;;15.01;62.95
73332;BME280;61560;33.718;73.040;2022-12-10T13:38:17;95261.84;;;15.01;61.58
73332;BME280;61560;33.718;73.040;2022-12-10T13:40:57;95263.50;;;14.98;61.14
73332;BME280;61560;33.718;73.040;2022-12-10T13:43:52;95272.88;;;15.01;61.07
73332;BME280;61560;33.718;73.040;2022-12-10T13:46:58;95269.38;;;15.00;61.17
73332;BME280;61560;33.718;73.040;2022-12-10T13:49:29;95267.47;;;14.97;60.95
73332;BME280;61560;33.718;73.040;2022-12-10T13:52:12;95278.75;;;15.03;60.57
73332;BME280;61560;33.718;73.040;2022-12-10T14:00:20;95282.81;;;14.98;58.78
73332;BME280;61560;33.718;73.040;2022-12-10T14:08:37;95295.09;;;14.77;58.74
73332;BME280;61560;33.718;73.040;2022-12-10T14:11:18;95308.13;;;14.77;58.80
73332;BME280;61560;33.718;73.040;2022-12-10T14:13:51;95301.56;;;14.71;59.08
73332;BME280;61560;33.718;73.040;2022-12-10T14:16:22;95305.50;;;14.70;59.69
73332;BME280;61560;33.718;73.040;2022-12-10T14:18:59;95306.72;;;14.69;59.80
73332;BME280;61560;33.718;73.040;2022-12-10T14:21:34;95311.88;;;14.67;59.79
73332;BME280;61560;33.718;73.040;2022-12-10T14:24:03;95310.41;;;14.62;60.12
73332;BME280;61560;33.718;73.040;2022-12-10T14:26:33;95314.28;;;14.65;60.30
73332;BME280;61560;33.718;73.040;2022-12-10T14:29:19;95311.59;;;14.61;60.57
73332;BME280;61560;33.718;73.040;2022-12-10T14:31:50;95308.13;;;14.57;60.31
73332;BME280;61560;33.718;73.040;2022-12-10T14:34:23;95317.97;;;14.58;60.08
73332;BME280;61560;33.718;73.040;2022-12-10T14:36:56;95316.00;;;14.59;60.20
73332;BME280;61560;33.718;73.040;2022-12-10T14:39:30;95322.34;;;14.56;60.32
73332;BME280;61560;33.718;73.040;2022-12-10T14:42:04;95331.47;;;14.53;59.96
73332;BME280;61560;33.718;73.040;2022-12-10T14:44:35;95323.78;;;14.44;60.47
73332;BME280;61560;33.718;73.040;2022-12-10T14:47:06;95330.56;;;14.40;60.90
73332;BME280;61560;33.718;73.040;2022-12-10T14:49:42;95323.13;;;14.37;60.54
73332;BME280;61560;33.718;73.040;2022-12-10T14:54:45;95322.91;;;14.28;61.03
73332;BME280;61560;33.718;73.040;2022-12-10T14:57:29;95329.59;;;14.27;60.79
73332;BME280;61560;33.718;73.040;2022-12-10T15:00:17;95331.25;;;14.24;61.34
73332;BME280;61560;33.718;73.040;2022-12-10T15:02:48;95340.41;;;14.18;61.28
73332;BME280;61560;33.718;73.040;2022-12-10T15:05:26;95342.50;;;14.10;61.35
73332;BME280;61560;33.718;73.040;2022-12-10T15:07:58;95341.16;;;13.98;61.39
73332;BME280;61560;33.718;73.040;2022-12-10T15:10:41;95342.06;;;13.92;61.47
73332;BME280;61560;33.718;73.040;2022-12-10T15:15:58;95332.81;;;13.82;61.53
73332;BME280;61560;33.718;73.040;2022-12-10T15:18:36;95339.47;;;13.85;62.01
73332;BME280;61560;33.718;73.040;2022-12-10T15:21:22;95331.97;;;13.85;61.82
73332;BME280;61560;33.718;73.040;2022-12-10T15:24:11;95333.88;;;13.88;62.32
73332;BME280;61560;33.718;73.040;2022-12-10T15:26:43;95338.19;;;13.89;61.90
73332;BME280;61560;33.718;73.040;2022-12-10T15:29:32;95328.09;;;13.83;61.67
73332;BME280;61560;33.718;73.040;2022-12-10T15:32:31;95345.69;;;13.89;61.40
73332;BME280;61560;33.718;73.040;2022-12-10T15:35:05;95345.69;;;13.89;61.30
73332;BME280;61560;33.718;73.040;2022-12-10T15:37:38;95342.22;;;13.85;61.00
73332;BME280;61560;33.718;73.040;2022-12-10T15:40:19;95341.84;;;13.83;60.82
73332;BME280;61560;33.718;73.040;2022-12-10T15:42:47;95345.38;;;13.83;61.06
73332;BME280;61560;33.718;73.040;2022-12-10T15:45:24;95349.34;;;13.82;60.85
73332;BME280;61560;33.718;73.040;2022-12-10T15:47:59;95350.50;;;13.81;61.00
73332;BME280;61560;33.718;73.040;2022-12-10T15:55:43;95353.75;;;13.76;61.04
73332;BME280;61560;33.718;73.040;2022-12-10T15:58:13;95348.69;;;13.75;61.10
73332;BME280;61560;33.718;73.040;2022-12-10T16:00:45;95345.22;;;13.71;61.05
73332;BME280;61560;33.718;73.040;2022-12-10T16:06:30;95342.50;;;13.67;60.84
73332;BME280;61560;33.718;73.040;2022-12-10T16:09:17;95336.25;;;13.67;60.78
73332;BME280;61560;33.718;73.040;2022-12-10T16:12:45;95343.72;;;13.66;60.30
73332;BME280;61560;33.718;73.040;2022-12-10T16:15:28;95339.81;;;13.64;60.23
73332;BME280;61560;33.718;73.040;2022-12-10T16:21:12;95338.50;;;13.49;60.33
73332;BME280;61560;33.718;73.040;2022-12-10T16:23:50;95335.38;;;13.47;59.89
73332;BME280;61560;33.718;73.040;2022-12-10T16:26:26;95328.88;;;13.37;60.46
73332;BME280;61560;33.718;73.040;2022-12-10T16:28:58;95341.06;;;13.36;60.53
73332;BME280;61560;33.718;73.040;2022-12-10T16:31:39;95336.03;;;13.31;60.58
73332;BME280;61560;33.718;73.040;2022-12-10T16:34:11;95333.75;;;13.26;61.03
73332;BME280;61560;33.718;73.040;2022-12-10T16:36:42;95340.75;;;13.31;60.96
73332;BME280;61560;33.718;73.040;2022-12-10T16:39:21;95344.41;;;13.24;60.96
73332;BME280;61560;33.718;73.040;2022-12-10T16:41:57;95332.22;;;13.25;60.76
73332;BME280;61560;33.718;73.040;2022-12-10T16:44:36;95344.38;;;13.28;60.92
73332;BME280;61560;33.718;73.040;2022-12-10T16:47:56;95345.25;;;13.21;61.09
73332;BME280;61560;33.718;73.040;2022-12-10T16:51:21;95340.53;;;13.22;60.97
73332;BME280;61560;33.718;73.040;2022-12-10T16:57:16;95328.84;;;13.14;60.66
73332;BME280;61560;33.718;73.040;2022-12-10T17:00:28;95326.50;;;13.12;61.07
73332;BME280;61560;33.718;73.040;2022-12-10T17:03:27;95322.94;;;13.16;61.55
73332;BME280;61560;33.718;73.040;2022-12-10T17:06:15;95324.13;;;13.14;60.89
73332;BME280;61560;33.718;73.040;2022-12-10T17:08:55;95320.66;;;13.10;60.94
73332;BME280;61560;33.718;73.040;2022-12-10T17:11:30;95330.44;;;13.11;60.85
73332;BME280;61560;33.718;73.040;2022-12-10T17:14:27;95337.94;;;13.11;60.27
73332;BME280;61560;33.718;73.040;2022-12-10T17:17:06;95335.22;;;13.07;60.03
73332;BME280;61560;33.718;73.040;2022-12-10T17:23:18;95349.47;;;12.99;60.38
73332;BME280;61560;33.718;73.040;2022-12-10T17:25:45;95338.16;;;12.93;60.67
73332;BME280;61560;33.718;73.040;2022-12-10T17:28:19;95347.56;;;12.96;60.88
73332;BME280;61560;33.718;73.040;2022-12-10T17:30:47;95355.44;;;12.94;60.38
73332;BME280;61560;33.718;73.040;2022-12-10T17:33:21;95351.16;;;12.93;60.92
73332;BME280;61560;33.718;73.040;2022-12-10T17:35:50;95357.81;;;12.92;61.30
73332;BME280;61560;33.718;73.040;2022-12-10T17:38:24;95352.75;;;12.90;61.60
73332;BME280;61560;33.718;73.040;2022-12-10T17:40:53;95348.19;;;12.80;61.63
73332;BME280;61560;33.718;73.040;2022-12-10T17:43:21;95352.09;;;12.79;61.51
73332;BME280;61560;33.718;73.040;2022-12-10T17:45:48;95347.81;;;12.78;60.75
73332;BME280;61560;33.718;73.040;2022-12-10T17:48:17;95354.13;;;12.75;61.27
73332;BME280;61560;33.718;73.040;2022-12-10T17:50:45;95354.53;;;12.74;61.07
73332;BME280;61560;33.718;73.040;2022-12-10T17:53:13;95355.78;;;12.69;61.19
73332;BME280;61560;33.718;73.040;2022-12-10T17:55:44;95355.03;;;12.65;61.66
73332;BME280;61560;33.718;73.040;2022-12-10T17:58:11;95348.41;;;12.63;61.53
73332;BME280;61560;33.718;73.040;2022-12-10T18:00:39;95339.41;;;12.59;61.98
73332;BME280;61560;33.718;73.040;2022-12-10T18:03:06;95340.16;;;12.63;61.76
73332;BME280;61560;33.718;73.040;2022-12-10T18:05:32;95338.63;;;12.58;61.52
73332;BME280;61560;33.718;73.040;2022-12-10T18:07:59;95344.91;;;12.62;61.84
73332;BME280;61560;33.718;73.040;2022-12-10T18:10:28;95338.69;;;12.55;61.58
73332;BME280;61560;33.718;73.040;2022-12-10T18:12:57;95338.28;;;12.56;60.94
73332;BME280;61560;33.718;73.040;2022-12-10T18:15:26;95332.41;;;12.54;60.92
73332;BME280;61560;33.718;73.040;2022-12-10T18:17:53;95331.69;;;12.50;61.42
73332;BME280;61560;33.718;73.040;2022-12-10T18:20:29;95333.66;;;12.50;61.08
73332;BME280;61560;33.718;73.040;2022-12-10T18:22:57;95336.00;;;12.51;61.63
73332;BME280;61560;33.718;73.040;2022-12-10T18:25:25;95335.69;;;12.46;61.49
73332;BME280;61560;33.718;73.040;2022-12-10T18:27:54;95329.47;;;12.42;62.02
73332;BME280;61560;33.718;73.040;2022-12-10T18:30:23;95330.63;;;12.41;62.35
73332;BME280;61560;33.718;73.040;2022-12-10T18:32:51;95318.22;;;12.29;62.65
73332;BME280;61560;33.718;73.040;2022-12-10T18:35:18;95324.47;;;12.29;62.51
73332;BME280;61560;33.718;73.040;2022-12-10T18:37:45;95323.34;;;12.27;62.46
73332;BME280;61560;33.718;73.040;2022-12-10T18:40:18;95326.50;;;12.25;62.11
73332;BME280;61560;33.718;73.040;2022-12-10T18:42:47;95324.59;;;12.22;62.14
73332;BME280;61560;33.718;73.040;2022-12-10T18:45:16;95323.00;;;12.21;62.49
73332;BME280;61560;33.718;73.040;2022-12-10T18:47:42;95324.94;;;12.24;62.62
73332;BME280;61560;33.718;73.040;2022-12-10T18:50:19;95325.75;;;12.25;62.96
73332;BME280;61560;33.718;73.040;2022-12-10T18:52:53;95326.91;;;12.24;62.69
73332;BME280;61560;33.718;73.040;2022-12-10T18:55:23;95319.16;;;12.19;62.54
73332;BME280;61560;33.718;73.040;2022-12-10T18:57:50;95319.16;;;12.19;62.83
73332;BME280;61560;33.718;73.040;2022-12-10T19:00:20;95319.94;;;12.16;62.98
73332;BME280;61560;33.718;73.040;2022-12-10T19:02:48;95318.78;;;12.13;62.86
73332;BME280;61560;33.718;73.040;2022-12-10T19:05:15;95326.59;;;12.18;62.90
73332;BME280;61560;33.718;73.040;2022-12-10T19:07:46;95332.09;;;12.18;63.00
73332;BME280;61560;33.718;73.040;2022-12-10T19:10:19;95320.31;;;12.18;62.82
73332;BME280;61560;33.718;73.040;2022-12-10T19:12:48;95311.03;;;12.08;62.96
73332;BME280;61560;33.718;73.040;2022-12-10T19:15:16;95316.53;;;12.08;63.08
73332;BME280;61560;33.718;73.040;2022-12-10T19:17:47;95318.44;;;12.11;62.97
73332;BME280;61560;33.718;73.040;2022-12-10T19:20:17;95312.56;;;12.09;63.24
73332;BME280;61560;33.718;73.040;2022-12-10T19:22:43;95311.78;;;12.09;63.08
73332;BME280;61560;33.718;73.040;2022-12-10T19:25:12;95313.78;;;12.05;63.59
73332;BME280;61560;33.718;73.040;2022-12-10T19:27:38;95322.03;;;12.05;63.31
73332;BME280;61560;33.718;73.040;2022-12-10T19:32:39;95321.28;;;12.04;63.44
73332;BME280;61560;33.718;73.040;2022-12-10T19:35:07;95318.53;;;12.04;63.55
73332;BME280;61560;33.718;73.040;2022-12-10T19:37:37;95318.16;;;12.02;63.48
73332;BME280;61560;33.718;73.040;2022-12-10T19:40:18;95317.75;;;12.04;63.72
73332;BME280;61560;33.718;73.040;2022-12-10T19:42:46;95309.94;;;11.99;63.78
73332;BME280;61560;33.718;73.040;2022-12-10T19:45:13;95315.41;;;12.02;63.85
73332;BME280;61560;33.718;73.040;2022-12-10T19:47:41;95320.91;;;11.99;64.00
73332;BME280;61560;33.718;73.040;2022-12-10T19:50:15;95320.97;;;11.95;64.06
73332;BME280;61560;33.718;73.040;2022-12-10T19:52:43;95323.66;;;11.99;64.03
73332;BME280;61560;33.718;73.040;2022-12-10T19:55:11;95327.66;;;11.94;64.32
73332;BME280;61560;33.718;73.040;2022-12-10T19:57:38;95331.53;;;11.97;64.25
73332;BME280;61560;33.718;73.040;2022-12-10T20:00:06;95326.09;;;11.93;64.77
73332;BME280;61560;33.718;73.040;2022-12-10T20:02:36;95314.75;;;11.91;64.61
73332;BME280;61560;33.718;73.040;2022-12-10T20:05:04;95313.19;;;11.90;64.88
73332;BME280;61560;33.718;73.040;2022-12-10T20:07:30;95319.44;;;11.91;64.79
73332;BME280;61560;33.718;73.040;2022-12-10T20:09:57;95308.16;;;11.85;64.91
73332;BME280;61560;33.718;73.040;2022-12-10T20:12:24;95312.47;;;11.86;64.90
73332;BME280;61560;33.718;73.040;2022-12-10T20:14:51;95307.72;;;11.90;65.01
73332;BME280;61560;33.718;73.040;2022-12-10T20:17:19;95312.03;;;11.88;64.93
73332;BME280;61560;33.718;73.040;2022-12-10T20:19:50;95312.41;;;11.90;65.04
73332;BME280;61560;33.718;73.040;2022-12-10T20:22:17;95309.28;;;11.88;65.49
73332;BME280;61560;33.718;73.040;2022-12-10T20:24:44;95303.81;;;11.84;65.42
73332;BME280;61560;33.718;73.040;2022-12-10T20:27:15;95310.94;;;11.78;65.38
73332;BME280;61560;33.718;73.040;2022-12-10T20:29:42;95306.66;;;11.77;66.11
73332;BME280;61560;33.718;73.040;2022-12-10T20:32:09;95304.41;;;11.65;66.08
73332;BME280;61560;33.718;73.040;2022-12-10T20:34:36;95312.28;;;11.63;66.78
73332;BME280;61560;33.718;73.040;2022-12-10T20:37:02;95311.13;;;11.61;66.60
73332;BME280;61560;33.718;73.040;2022-12-10T20:39:32;95317.75;;;11.67;66.34
73332;BME280;61560;33.718;73.040;2022-12-10T20:41:59;95314.63;;;11.61;66.75
73332;BME280;61560;33.718;73.040;2022-12-10T20:44:27;95326.78;;;11.60;66.99
73332;BME280;61560;33.718;73.040;2022-12-10T20:46:54;95314.41;;;11.45;67.52
73332;BME280;61560;33.718;73.040;2022-12-10T20:49:22;95317.16;;;11.45;67.59
73332;BME280;61560;33.718;73.040;2022-12-10T20:51:49;95325.38;;;11.45;67.36
73332;BME280;61560;33.718;73.040;2022-12-10T20:54:19;95328.59;;;11.33;67.72
73332;BME280;61560;33.718;73.040;2022-12-10T20:56:48;95337.22;;;11.31;67.85
73332;BME280;61560;33.718;73.040;2022-12-10T20:59:15;95327.09;;;11.25;67.75
73332;BME280;61560;33.718;73.040;2022-12-10T21:01:42;95338.06;;;11.25;67.85
73332;BME280;61560;33.718;73.040;2022-12-10T21:04:11;95338.50;;;11.20;67.77
73332;BME280;61560;33.718;73.040;2022-12-10T21:06:37;95337.31;;;11.24;67.49
73332;BME280;61560;33.718;73.040;2022-12-10T21:09:05;95348.22;;;11.28;67.65
73332;BME280;61560;33.718;73.040;2022-12-10T21:11:32;95331.41;;;11.26;67.68
73332;BME280;61560;33.718;73.040;2022-12-10T21:14:00;95338.88;;;11.22;68.05
73332;BME280;61560;33.718;73.040;2022-12-10T21:16:28;95353.38;;;11.19;67.98
73332;BME280;61560;33.718;73.040;2022-12-10T21:18:56;95352.63;;;11.18;67.99
73332;BME280;61560;33.718;73.040;2022-12-10T21:21:24;95347.09;;;11.22;67.85
73332;BME280;61560;33.718;73.040;2022-12-10T21:23:53;95349.06;;;11.21;67.58
73332;BME280;61560;33.718;73.040;2022-12-10T21:26:20;95345.16;;;11.22;67.42
73332;BME280;61560;33.718;73.040;2022-12-10T21:28:47;95344.03;;;11.16;67.63
73332;BME280;61560;33.718;73.040;2022-12-10T21:31:22;95340.84;;;11.21;67.05
73332;BME280;61560;33.718;73.040;2022-12-10T21:33:50;95336.94;;;11.22;66.41
73332;BME280;61560;33.718;73.040;2022-12-10T21:36:18;95332.63;;;11.21;66.72
73332;BME280;61560;33.718;73.040;2022-12-10T21:38:47;95322.44;;;11.22;66.39
73332;BME280;61560;33.718;73.040;2022-12-10T21:41:19;95322.78;;;11.27;66.29
73332;BME280;61560;33.718;73.040;2022-12-10T21:44:04;95318.09;;;11.24;66.24
73332;BME280;61560;33.718;73.040;2022-12-10T21:46:31;95313.84;;;11.20;65.82
73332;BME280;61560;33.718;73.040;2022-12-10T21:48:58;95322.44;;;11.22;66.16